Time;durP1;ratioP1;P1;durP2;ratioP2;P2;SDS_P1;SDS_P2;PMS_P1;PMS_P2;Temp;Humidity;BMP_temperature;BMP_pressure;BME280_temperature;BME280_humidity;BME280_pressure;Samples;Min_cycle;Max_cycle;Signal;HPM_P1;HPM_P2
2021/06/05 00:00:58;;;;;;;2.90;2.63;;;27.00;52.20;;;;;;5094999;28;20032;-59
2021/06/05 00:03:24;;;;;;;3.55;2.85;;;27.00;52.20;;;;;;5094706;28;20420;-62
2021/06/05 00:05:57;;;;;;;3.03;2.67;;;27.00;52.20;;;;;;5094267;28;20044;-61
2021/06/05 00:08:25;;;;;;;3.42;3.13;;;27.00;52.30;;;;;;5095033;28;20036;-61
2021/06/05 00:10:55;;;;;;;3.70;2.75;;;27.00;52.30;;;;;;5077973;28;20063;-61
2021/06/05 00:13:31;;;;;;;3.53;3.03;;;27.00;52.30;;;;;;5095792;28;20036;-61
2021/06/05 00:15:58;;;;;;;3.50;2.38;;;27.00;52.30;;;;;;5086003;28;20048;-60
2021/06/05 00:18:24;;;;;;;4.05;2.70;;;27.00;52.40;;;;;;5093543;28;20052;-61
2021/06/05 00:20:51;;;;;;;3.40;2.90;;;27.00;52.40;;;;;;5094349;28;20409;-61
2021/06/05 00:23:19;;;;;;;4.55;3.10;;;27.00;52.40;;;;;;5093969;28;20054;-61
2021/06/05 00:25:47;;;;;;;3.10;2.80;;;26.90;52.40;;;;;;5094701;28;20028;-62
2021/06/05 00:28:13;;;;;;;3.78;3.25;;;26.90;52.40;;;;;;5094404;28;20020;-63
2021/06/05 00:30:40;;;;;;;3.45;2.85;;;26.90;52.40;;;;;;5093711;28;20059;-62
2021/06/05 00:33:06;;;;;;;3.55;3.08;;;26.90;52.50;;;;;;5093303;28;20020;-64
2021/06/05 00:35:35;;;;;;;3.55;3.10;;;26.90;52.50;;;;;;5093638;28;20366;-61
2021/06/05 00:38:02;;;;;;;2.92;2.70;;;26.90;52.50;;;;;;5093287;28;20535;-62
2021/06/05 00:40:31;;;;;;;3.40;3.00;;;26.90;52.50;;;;;;5094249;28;20035;-63
2021/06/05 00:42:58;;;;;;;3.00;2.67;;;26.90;52.60;;;;;;5093359;28;20024;-61
2021/06/05 00:45:27;;;;;;;3.00;2.70;;;26.90;52.60;;;;;;5092465;28;20113;-61
2021/06/05 00:47:54;;;;;;;3.22;2.60;;;26.90;52.60;;;;;;5094564;28;20035;-61
2021/06/05 00:50:21;;;;;;;2.92;2.60;;;26.90;52.60;;;;;;5094185;28;20028;-61
2021/06/05 00:52:48;;;;;;;3.38;3.08;;;26.90;52.60;;;;;;5093087;28;20348;-60
2021/06/05 00:55:18;;;;;;;3.60;3.00;;;26.90;52.70;;;;;;5093884;28;20039;-61
2021/06/05 00:57:44;;;;;;;2.88;2.67;;;26.90;52.70;;;;;;5093505;28;20317;-61
2021/06/05 01:00:16;;;;;;;3.40;3.10;;;26.90;52.70;;;;;;5087088;28;20474;-60
2021/06/05 01:02:42;;;;;;;2.88;2.67;;;26.90;52.70;;;;;;5094306;28;20024;-62
2021/06/05 01:05:10;;;;;;;3.20;2.90;;;26.80;52.60;;;;;;5093420;28;20280;-62
2021/06/05 01:07:38;;;;;;;3.38;2.92;;;26.90;52.60;;;;;;5093240;28;20063;-61
2021/06/05 01:10:14;;;;;;;3.22;2.92;;;26.90;52.60;;;;;;5093202;28;20047;-63
2021/06/05 01:13:18;;;;;;;3.50;2.83;;;26.90;52.60;;;;;;5092309;28;20048;-61
2021/06/05 01:15:57;;;;;;;2.60;2.40;;;26.90;53.20;;;;;;5093768;28;20092;-60
2021/06/05 01:18:33;;;;;;;2.80;2.50;;;26.80;52.50;;;;;;5093970;28;20042;-62
2021/06/05 01:21:24;;;;;;;3.30;3.00;;;26.80;52.50;;;;;;5093670;28;20418;-62
2021/06/05 01:24:18;;;;;;;2.53;2.30;;;26.80;52.50;;;;;;5092995;28;20336;-62
2021/06/05 01:26:58;;;;;;;3.15;2.85;;;26.80;52.50;;;;;;5094172;28;20439;-60
2021/06/05 01:29:37;;;;;;;2.97;2.67;;;26.80;52.50;;;;;;5084265;28;20028;-60
2021/06/05 01:32:09;;;;;;;3.13;2.88;;;26.80;52.40;;;;;;5094961;28;20119;-62
2021/06/05 01:34:45;;;;;;;3.40;3.10;;;26.80;52.40;;;;;;5096489;28;20020;-60
2021/06/05 01:37:16;;;;;;;3.17;2.67;;;26.80;52.40;;;;;;5095879;28;20055;-62
2021/06/05 01:39:50;;;;;;;3.10;2.78;;;26.70;53.00;;;;;;5076202;28;20029;-60
2021/06/05 01:42:20;;;;;;;3.00;2.67;;;26.70;52.40;;;;;;5096890;28;20019;-60
2021/06/05 01:44:53;;;;;;;2.92;2.63;;;26.70;52.40;;;;;;5097305;28;20031;-61
2021/06/05 01:47:20;;;;;;;2.80;2.60;;;26.70;52.30;;;;;;5095449;28;20103;-62
2021/06/05 01:49:47;;;;;;;3.53;3.22;;;26.80;52.40;;;;;;5096474;28;20119;-62
2021/06/05 01:52:27;;;;;;;3.30;3.00;;;26.70;52.40;;;;;;5096499;28;20339;-60
2021/06/05 01:55:13;;;;;;;3.55;3.25;;;26.70;52.30;;;;;;5096317;28;20047;-61
2021/06/05 01:57:46;;;;;;;3.30;3.00;;;26.70;52.30;;;;;;5082180;28;20489;-62
2021/06/05 02:00:25;;;;;;;3.53;3.22;;;26.70;52.30;;;;;;5078946;28;20024;-61
2021/06/05 02:02:52;;;;;;;3.30;3.00;;;26.70;52.30;;;;;;5097047;28;20066;-62
2021/06/05 02:05:27;;;;;;;4.03;3.67;;;26.70;52.90;;;;;;5095481;28;20359;-61
2021/06/05 02:07:55;;;;;;;4.85;3.55;;;26.70;52.20;;;;;;5096363;28;20031;-62
2021/06/05 02:10:29;;;;;;;4.03;3.63;;;26.70;52.10;;;;;;5097391;28;20343;-61
2021/06/05 02:12:57;;;;;;;4.60;3.78;;;26.70;52.00;;;;;;5095694;28;20439;-61
2021/06/05 02:15:52;;;;;;;4.47;4.07;;;26.70;52.00;;;;;;5095953;28;20027;-62
2021/06/05 02:18:28;;;;;;;4.20;3.80;;;26.70;51.90;;;;;;5077412;28;20046;-60
2021/06/05 02:21:23;;;;;;;4.00;3.65;;;26.70;52.40;;;;;;5086423;28;20024;-62
2021/06/05 02:23:57;;;;;;;4.10;3.70;;;26.70;51.80;;;;;;5095160;28;20042;-62
2021/06/05 02:26:24;;;;;;;4.30;3.90;;;26.60;51.70;;;;;;5092660;28;20127;-60
2021/06/05 02:28:56;;;;;;;4.25;3.85;;;26.60;51.70;;;;;;5093653;28;20085;-61
2021/06/05 02:31:24;;;;;;;4.68;4.10;;;26.60;51.60;;;;;;5095533;28;20024;-61
2021/06/05 02:33:56;;;;;;;4.20;3.80;;;26.60;51.60;;;;;;5095245;28;20024;-62
2021/06/05 02:36:22;;;;;;;4.32;3.92;;;26.50;51.50;;;;;;5095288;28;20469;-61
2021/06/05 02:38:50;;;;;;;4.30;3.90;;;26.50;51.50;;;;;;5094324;28;20439;-60
2021/06/05 02:41:23;;;;;;;4.72;4.13;;;26.50;51.40;;;;;;5095277;28;20435;-61
2021/06/05 02:43:52;;;;;;;4.55;3.92;;;26.60;51.40;;;;;;5095497;28;20043;-63
2021/06/05 02:46:29;;;;;;;4.38;3.90;;;26.50;51.30;;;;;;5096648;28;20031;-62
2021/06/05 02:49:18;;;;;;;4.25;3.85;;;26.50;51.30;;;;;;5096280;28;20028;-61
2021/06/05 02:51:51;;;;;;;5.15;4.65;;;26.50;51.30;;;;;;5084853;28;20032;-63
2021/06/05 02:54:24;;;;;;;5.10;4.35;;;26.50;51.30;;;;;;5094110;28;20032;-61
2021/06/05 02:56:51;;;;;;;5.20;4.68;;;26.50;51.30;;;;;;5095262;28;20032;-62
2021/06/05 02:59:17;;;;;;;5.60;4.93;;;26.50;51.30;;;;;;5095435;28;20482;-60
2021/06/05 03:01:50;;;;;;;5.25;4.72;;;26.50;51.20;;;;;;5094980;28;20181;-62
2021/06/05 03:04:16;;;;;;;5.47;4.97;;;26.50;51.10;;;;;;5077807;28;20048;-61
2021/06/05 03:06:44;;;;;;;5.70;5.10;;;26.50;51.10;;;;;;5094406;28;20043;-60
2021/06/05 03:09:16;;;;;;;5.80;4.97;;;26.50;51.00;;;;;;5083608;28;20024;-62
2021/06/05 03:11:45;;;;;;;5.18;4.43;;;26.50;50.90;;;;;;5096222;28;20038;-61
2021/06/05 03:14:12;;;;;;;5.05;4.57;;;26.50;50.90;;;;;;5094276;28;20024;-61
2021/06/05 03:16:38;;;;;;;6.03;5.18;;;26.50;50.80;;;;;;5095167;28;20375;-62
2021/06/05 03:19:05;;;;;;;7.18;5.63;;;26.40;50.70;;;;;;5094480;28;20495;-62
2021/06/05 03:21:34;;;;;;;6.35;5.53;;;26.40;50.70;;;;;;5078521;28;20105;-61
2021/06/05 03:24:10;;;;;;;5.82;5.03;;;26.40;50.60;;;;;;5092951;28;20058;-61
2021/06/05 03:26:37;;;;;;;6.05;5.38;;;26.50;50.60;;;;;;5094943;28;20024;-60
2021/06/05 03:29:06;;;;;;;6.28;5.40;;;26.50;50.50;;;;;;5094207;28;20028;-62
2021/06/05 03:31:35;;;;;;;7.57;6.10;;;26.40;50.40;;;;;;5094791;28;20028;-64
2021/06/05 03:34:03;;;;;;;6.95;5.82;;;26.50;50.40;;;;;;5095065;28;20422;-62
2021/06/05 03:36:31;;;;;;;6.25;5.45;;;26.40;50.30;;;;;;5094155;28;20389;-61
2021/06/05 03:38:59;;;;;;;7.70;5.93;;;26.40;50.30;;;;;;5093962;28;20036;-61
2021/06/05 03:41:31;;;;;;;6.90;5.83;;;26.40;50.20;;;;;;5093756;28;20032;-59
2021/06/05 03:43:58;;;;;;;6.90;6.20;;;26.40;50.20;;;;;;5094725;28;20052;-61
2021/06/05 03:46:25;;;;;;;6.72;5.78;;;26.40;50.20;;;;;;5093558;28;20122;-61
2021/06/05 03:48:53;;;;;;;7.30;5.78;;;26.40;50.10;;;;;;5093769;28;20045;-59
2021/06/05 03:51:19;;;;;;;7.07;5.57;;;26.40;50.10;;;;;;5093057;28;20348;-61
2021/06/05 03:53:46;;;;;;;7.82;6.03;;;26.40;50.10;;;;;;5093918;28;20028;-62
2021/06/05 03:56:12;;;;;;;6.75;5.38;;;26.40;50.10;;;;;;5093944;28;20024;-61
2021/06/05 03:58:41;;;;;;;8.45;5.88;;;26.40;50.10;;;;;;5095262;28;20450;-60
2021/06/05 04:01:14;;;;;;;7.03;6.22;;;26.40;50.10;;;;;;5095081;28;20032;-62
2021/06/05 04:03:41;;;;;;;8.80;6.32;;;26.40;50.10;;;;;;5094688;28;20096;-62
2021/06/05 04:06:07;;;;;;;7.13;5.95;;;26.40;50.10;;;;;;5094840;28;20055;-62
2021/06/05 04:08:34;;;;;;;7.35;6.00;;;26.40;50.10;;;;;;5094808;28;20060;-61
2021/06/05 04:11:00;;;;;;;7.10;5.60;;;26.40;50.10;;;;;;5094764;28;20032;-62
2021/06/05 04:13:26;;;;;;;7.85;6.57;;;26.30;50.00;;;;;;5093863;28;20471;-62
2021/06/05 04:15:52;;;;;;;6.97;6.07;;;26.30;50.00;;;;;;5094411;28;20424;-64
2021/06/05 04:18:24;;;;;;;6.60;5.72;;;26.40;50.00;;;;;;5095288;28;20031;-61
2021/06/05 04:20:51;;;;;;;7.65;6.05;;;26.30;50.00;;;;;;5094618;28;20323;-63
2021/06/05 04:23:18;;;;;;;7.55;6.32;;;26.30;50.00;;;;;;5094450;28;20035;-61
2021/06/05 04:25:43;;;;;;;8.52;6.63;;;26.40;50.00;;;;;;5095045;28;20036;-62
2021/06/05 04:28:12;;;;;;;8.02;6.57;;;26.30;50.00;;;;;;5093860;28;20110;-61
2021/06/05 04:30:40;;;;;;;8.00;6.25;;;26.30;50.00;;;;;;5072605;28;20047;-62
2021/06/05 04:33:06;;;;;;;8.30;6.78;;;26.30;50.00;;;;;;5079595;28;20040;-64
2021/06/05 04:35:32;;;;;;;8.07;6.68;;;26.30;50.00;;;;;;5090963;28;20047;-61
2021/06/05 04:37:58;;;;;;;8.38;6.60;;;26.30;50.00;;;;;;5091999;28;20028;-63
2021/06/05 04:40:26;;;;;;;8.65;6.75;;;26.30;50.00;;;;;;5093429;28;20051;-61
2021/06/05 04:42:52;;;;;;;7.60;6.20;;;26.30;50.00;;;;;;5091347;28;20040;-62
2021/06/05 04:45:19;;;;;;;9.10;6.80;;;26.30;50.00;;;;;;5092306;28;20044;-61
2021/06/05 04:47:45;;;;;;;7.63;6.20;;;26.30;50.00;;;;;;5091697;28;20036;-61
2021/06/05 04:50:15;;;;;;;7.00;6.00;;;26.30;50.00;;;;;;5075813;28;20562;-62
2021/06/05 04:52:42;;;;;;;7.70;6.63;;;26.30;50.00;;;;;;5088776;28;20096;-62
2021/06/05 04:55:09;;;;;;;6.80;5.88;;;26.30;50.00;;;;;;5092080;28;20471;-64
2021/06/05 04:57:35;;;;;;;8.50;6.65;;;26.30;50.00;;;;;;5071063;28;20483;-62
2021/06/05 05:00:01;;;;;;;6.55;5.80;;;26.30;50.00;;;;;;5077478;28;20024;-62
2021/06/05 05:02:27;;;;;;;6.60;5.90;;;26.30;50.00;;;;;;5090625;28;20044;-61
2021/06/05 05:04:53;;;;;;;6.18;5.57;;;26.30;50.10;;;;;;5093493;28;20499;-62
2021/06/05 05:07:19;;;;;;;6.90;5.80;;;26.30;50.10;;;;;;5094079;28;20174;-62
2021/06/05 05:09:45;;;;;;;6.68;5.57;;;26.30;50.00;;;;;;5094182;28;20055;-63
2021/06/05 05:12:12;;;;;;;7.30;5.82;;;26.30;50.10;;;;;;5093955;28;20097;-61
2021/06/05 05:14:38;;;;;;;6.85;6.15;;;26.30;50.10;;;;;;5094207;28;20028;-62
2021/06/05 05:17:05;;;;;;;7.07;5.88;;;26.20;50.10;;;;;;5094357;28;20035;-63
2021/06/05 05:19:31;;;;;;;7.13;6.35;;;26.30;50.80;;;;;;5093296;28;20027;-64
2021/06/05 05:21:57;;;;;;;7.18;5.80;;;26.30;50.20;;;;;;5086551;28;20029;-61
2021/06/05 05:24:23;;;;;;;7.30;5.90;;;26.30;50.20;;;;;;5089033;28;20048;-61
2021/06/05 05:26:50;;;;;;;7.03;5.82;;;26.20;50.10;;;;;;5090190;28;20039;-61
2021/06/05 05:29:16;;;;;;;6.65;5.60;;;26.20;50.10;;;;;;5093361;28;20059;-61
2021/06/05 05:31:42;;;;;;;7.28;5.80;;;26.20;50.10;;;;;;5093747;28;20034;-63
2021/06/05 05:34:08;;;;;;;7.10;6.05;;;26.20;50.10;;;;;;5093208;28;20069;-62
2021/06/05 05:36:36;;;;;;;7.75;5.97;;;26.20;50.10;;;;;;5093608;28;20039;-61
2021/06/05 05:39:05;;;;;;;6.93;5.70;;;26.20;50.10;;;;;;5093047;28;20038;-62
2021/06/05 05:41:31;;;;;;;6.38;5.70;;;26.20;50.20;;;;;;5093861;28;20447;-61
2021/06/05 05:43:57;;;;;;;7.30;6.20;;;26.20;50.20;;;;;;5093594;28;20061;-62
2021/06/05 05:46:24;;;;;;;7.07;5.45;;;26.20;50.20;;;;;;5092335;28;20028;-62
2021/06/05 05:48:50;;;;;;;7.45;5.95;;;26.20;50.20;;;;;;5094298;28;20533;-61
2021/06/05 05:51:19;;;;;;;7.63;6.10;;;26.20;50.20;;;;;;5090756;28;20431;-61
2021/06/05 05:53:45;;;;;;;7.20;6.15;;;26.20;50.20;;;;;;5093242;28;20027;-62
2021/06/05 05:56:13;;;;;;;7.10;5.72;;;26.20;50.20;;;;;;5091440;28;20024;-61
2021/06/05 05:58:46;;;;;;;7.60;6.00;;;26.10;50.20;;;;;;5092633;28;20086;-61
2021/06/05 06:01:13;;;;;;;6.05;5.28;;;26.20;50.20;;;;;;5092841;28;20024;-61
2021/06/05 06:03:39;;;;;;;6.40;5.35;;;26.10;50.20;;;;;;5092284;28;20371;-61
2021/06/05 06:06:07;;;;;;;6.85;5.90;;;26.20;50.30;;;;;;5092701;28;20040;-62
2021/06/05 06:08:34;;;;;;;5.82;5.22;;;26.10;50.80;;;;;;5093691;28;20028;-62
2021/06/05 06:11:00;;;;;;;7.00;5.90;;;26.20;50.30;;;;;;5092243;28;20028;-63
2021/06/05 06:13:26;;;;;;;6.97;5.00;;;26.20;50.30;;;;;;5095284;28;20024;-62
2021/06/05 06:15:52;;;;;;;7.95;5.78;;;26.20;50.30;;;;;;5092239;28;20028;-62
2021/06/05 06:18:18;;;;;;;6.55;5.47;;;26.20;50.30;;;;;;5096299;28;20063;-61
2021/06/05 06:20:46;;;;;;;6.80;5.53;;;26.20;50.30;;;;;;5096689;28;20461;-61
2021/06/05 06:23:16;;;;;;;6.35;5.53;;;26.20;50.30;;;;;;5096993;28;20103;-63
2021/06/05 06:25:43;;;;;;;6.63;5.50;;;26.20;50.40;;;;;;5095667;28;20035;-64
2021/06/05 06:28:13;;;;;;;5.65;5.05;;;26.20;50.40;;;;;;5097083;28;20028;-61
2021/06/05 06:30:41;;;;;;;6.10;4.75;;;26.20;50.40;;;;;;5096505;28;20039;-62
2021/06/05 06:33:09;;;;;;;6.55;5.25;;;26.20;50.40;;;;;;5095853;28;20027;-61
2021/06/05 06:35:36;;;;;;;6.63;5.32;;;26.20;50.40;;;;;;5090058;28;20035;-61
2021/06/05 06:38:04;;;;;;;6.00;5.00;;;26.20;50.40;;;;;;5094588;28;20032;-62
2021/06/05 06:40:33;;;;;;;6.07;5.07;;;26.20;50.50;;;;;;5094105;28;20055;-61
2021/06/05 06:43:00;;;;;;;5.55;4.68;;;26.20;50.50;;;;;;5095101;28;20028;-61
2021/06/05 06:45:26;;;;;;;5.88;4.95;;;26.20;50.50;;;;;;5090798;28;20032;-61
2021/06/05 06:47:53;;;;;;;7.40;5.90;;;26.20;50.50;;;;;;5094755;28;20051;-61
2021/06/05 06:50:22;;;;;;;8.20;7.13;;;26.20;50.60;;;;;;5094186;28;20122;-62
2021/06/05 06:52:48;;;;;;;9.13;7.40;;;26.20;50.60;;;;;;5094283;28;20020;-60
2021/06/05 06:55:15;;;;;;;8.77;7.30;;;26.20;50.70;;;;;;5094531;28;20035;-60
2021/06/05 06:57:41;;;;;;;9.23;8.05;;;26.20;50.70;;;;;;5094360;28;20412;-61
2021/06/05 07:00:12;;;;;;;12.02;8.43;;;26.10;50.70;;;;;;5093176;28;20058;-63
2021/06/05 07:02:38;;;;;;;11.75;9.40;;;26.20;50.80;;;;;;5092248;28;20447;-61
2021/06/05 07:05:05;;;;;;;9.82;8.70;;;26.10;50.70;;;;;;5089439;28;20059;-62
2021/06/05 07:07:31;;;;;;;9.50;8.50;;;26.10;50.70;;;;;;5078683;28;20027;-63
2021/06/05 07:09:57;;;;;;;10.52;9.40;;;26.10;50.80;;;;;;5094491;28;20347;-61
2021/06/05 07:12:23;;;;;;;11.00;8.98;;;26.10;50.80;;;;;;5087264;28;20036;-61
2021/06/05 07:14:50;;;;;;;10.35;9.23;;;26.10;50.80;;;;;;5088221;28;20044;-62
2021/06/05 07:17:17;;;;;;;10.02;8.88;;;26.10;50.80;;;;;;5093693;28;20066;-61
2021/06/05 07:19:43;;;;;;;10.98;9.13;;;26.10;50.80;;;;;;5086659;28;20416;-62
2021/06/05 07:22:09;;;;;;;9.57;8.10;;;26.10;50.80;;;;;;5092724;28;20115;-61
2021/06/05 07:24:35;;;;;;;10.48;9.38;;;26.10;50.80;;;;;;5094028;28;20042;-62
2021/06/05 07:27:01;;;;;;;9.63;8.55;;;26.10;50.80;;;;;;5092745;28;20431;-62
2021/06/05 07:29:26;;;;;;;9.35;8.27;;;26.10;50.70;;;;;;5093399;28;20043;-61
2021/06/05 07:31:54;;;;;;;11.25;9.13;;;26.20;50.80;;;;;;5093864;28;20028;-62
2021/06/05 07:34:23;;;;;;;9.02;8.13;;;26.10;50.70;;;;;;5091560;28;20024;-64
2021/06/05 07:36:57;;;;;;;9.95;8.35;;;26.20;50.80;;;;;;5089781;28;20047;-63
2021/06/05 07:39:26;;;;;;;9.07;8.18;;;26.10;50.70;;;;;;5094590;28;20028;-62
2021/06/05 07:41:53;;;;;;;8.90;7.60;;;26.10;50.70;;;;;;5094390;28;20024;-62
2021/06/05 07:44:20;;;;;;;9.77;8.40;;;26.10;50.70;;;;;;5093790;28;20122;-60
2021/06/05 07:46:50;;;;;;;10.60;9.15;;;26.10;50.80;;;;;;5095570;28;20020;-60
2021/06/05 07:49:17;;;;;;;10.55;9.07;;;26.10;50.80;;;;;;5085912;28;20039;-61
2021/06/05 07:51:44;;;;;;;10.93;9.15;;;26.10;50.80;;;;;;5093583;28;20043;-61
2021/06/05 07:54:10;;;;;;;10.70;9.60;;;26.10;50.80;;;;;;5092555;28;20032;-60
2021/06/05 07:56:36;;;;;;;9.98;8.98;;;26.20;51.00;;;;;;5080249;28;20040;-61
2021/06/05 07:59:04;;;;;;;10.80;9.40;;;26.10;51.00;;;;;;5091143;28;20130;-64
2021/06/05 08:01:30;;;;;;;10.63;8.93;;;26.10;51.00;;;;;;5095506;28;20036;-63
2021/06/05 08:03:55;;;;;;;10.30;9.20;;;26.10;51.00;;;;;;5091936;28;20350;-60
2021/06/05 08:06:21;;;;;;;9.88;8.85;;;26.10;51.00;;;;;;5093149;28;20040;-62
2021/06/05 08:08:49;;;;;;;10.90;9.45;;;26.10;51.00;;;;;;5092619;28;20038;-63
2021/06/05 08:11:16;;;;;;;9.25;8.32;;;26.10;51.00;;;;;;5093684;28;20032;-62
2021/06/05 08:13:42;;;;;;;9.88;8.88;;;26.10;51.10;;;;;;5092973;28;20030;-59
2021/06/05 08:16:09;;;;;;;9.02;8.07;;;26.10;51.10;;;;;;5093903;28;20031;-60
2021/06/05 08:18:35;;;;;;;9.13;8.23;;;26.10;51.10;;;;;;5093605;28;20439;-62
2021/06/05 08:21:05;;;;;;;9.98;8.98;;;26.10;51.10;;;;;;5093229;28;20474;-61
2021/06/05 08:23:33;;;;;;;8.60;7.70;;;26.10;51.10;;;;;;5091954;28;20043;-60
2021/06/05 08:26:02;;;;;;;8.38;7.57;;;26.10;51.10;;;;;;5092199;28;20024;-63
2021/06/05 08:28:28;;;;;;;8.50;7.55;;;26.10;51.10;;;;;;5089217;28;20044;-60
2021/06/05 08:30:58;;;;;;;7.85;7.05;;;26.10;51.20;;;;;;5092898;28;20447;-59
2021/06/05 08:33:24;;;;;;;9.23;8.07;;;26.10;51.20;;;;;;5089858;28;20059;-61
2021/06/05 08:35:50;;;;;;;8.73;7.82;;;26.10;51.20;;;;;;5090873;28;20032;-61
2021/06/05 08:38:20;;;;;;;8.25;7.43;;;26.10;51.80;;;;;;5091128;28;20024;-60
2021/06/05 08:40:55;;;;;;;10.73;8.55;;;26.10;51.30;;;;;;5087886;28;20443;-61
2021/06/05 08:43:31;;;;;;;8.75;7.85;;;26.10;51.30;;;;;;5083610;28;20470;-60
2021/06/05 08:46:05;;;;;;;9.57;8.57;;;26.10;51.40;;;;;;5089732;28;20044;-61
2021/06/05 08:48:31;;;;;;;9.33;8.43;;;26.10;51.40;;;;;;5091024;28;20047;-61
2021/06/05 08:51:20;;;;;;;10.45;9.35;;;26.10;51.40;;;;;;5088933;28;20036;-59
2021/06/05 08:53:46;;;;;;;11.55;9.32;;;26.00;51.40;;;;;;5088275;28;20020;-57
2021/06/05 08:56:19;;;;;;;10.88;9.70;;;26.10;51.50;;;;;;5090216;28;20084;-58
2021/06/05 08:58:50;;;;;;;12.68;10.80;;;26.00;51.50;;;;;;5091529;28;20078;-61
2021/06/05 09:01:36;;;;;;;11.27;10.07;;;26.00;51.50;;;;;;5089126;28;20071;-62
2021/06/05 09:04:13;;;;;;;10.77;9.40;;;26.10;51.60;;;;;;5088156;28;20106;-60
2021/06/05 09:06:54;;;;;;;11.30;10.15;;;26.00;51.50;;;;;;5090524;28;20463;-60
2021/06/05 09:09:25;;;;;;;11.18;9.98;;;26.00;51.50;;;;;;5090719;28;20024;-62
2021/06/05 09:11:51;;;;;;;12.68;11.02;;;26.10;51.70;;;;;;5091326;28;20032;-62
2021/06/05 09:14:17;;;;;;;13.48;11.50;;;26.00;51.70;;;;;;5090666;28;20107;-64
2021/06/05 09:16:48;;;;;;;13.10;11.75;;;26.10;51.80;;;;;;5091583;28;20103;-60
2021/06/05 09:19:19;;;;;;;13.88;12.43;;;26.10;51.80;;;;;;5092082;28;20089;-57
2021/06/05 09:21:52;;;;;;;12.07;10.95;;;26.10;51.90;;;;;;5092320;28;20025;-59
2021/06/05 09:24:27;;;;;;;12.10;10.80;;;26.10;51.90;;;;;;5091744;28;20078;-59
2021/06/05 09:27:21;;;;;;;12.18;10.93;;;26.10;51.80;;;;;;5091272;28;20115;-59
2021/06/05 09:30:01;;;;;;;12.45;11.15;;;26.10;51.90;;;;;;5088668;28;20032;-59
2021/06/05 09:32:28;;;;;;;13.68;11.77;;;26.20;52.10;;;;;;5090969;28;20065;-57
2021/06/05 09:35:27;;;;;;;13.23;11.55;;;26.10;52.00;;;;;;5087171;28;20044;-60
2021/06/05 09:38:10;;;;;;;12.93;11.55;;;26.10;51.90;;;;;;5081602;28;20059;-56
2021/06/05 09:40:36;;;;;;;12.20;11.00;;;26.20;52.00;;;;;;5090342;28;20078;-61
2021/06/05 09:43:08;;;;;;;14.48;12.20;;;26.20;52.00;;;;;;5092223;28;20020;-59
2021/06/05 09:45:38;;;;;;;14.52;13.02;;;26.20;52.00;;;;;;5092573;28;20051;-58
2021/06/05 09:48:23;;;;;;;14.10;12.65;;;26.20;52.00;;;;;;5088012;28;20347;-59
2021/06/05 09:50:50;;;;;;;;;;;26.20;51.90;;;;;;5097343;28;20036;-61
2021/06/05 09:53:22;;;;;;;14.75;13.13;;;26.10;51.90;;;;;;5097271;28;19973;-61
2021/06/05 09:55:48;;;;;;;13.07;11.68;;;26.20;52.00;;;;;;5088907;28;20633;-60
2021/06/05 09:58:35;;;;;;;13.73;12.38;;;26.20;51.90;;;;;;5080068;28;20036;-59
2021/06/05 10:01:21;;;;;;;15.15;13.23;;;26.20;51.80;;;;;;5090618;28;20028;-61
2021/06/05 10:03:54;;;;;;;13.98;12.50;;;26.30;51.90;;;;;;5091290;28;20047;-60
2021/06/05 10:06:40;;;;;;;13.52;12.15;;;26.30;51.90;;;;;;5091354;28;20209;-59
2021/06/05 10:09:26;;;;;;;13.77;12.38;;;26.30;51.80;;;;;;5092433;28;20091;-61
2021/06/05 10:12:12;;;;;;;13.57;12.18;;;26.30;51.90;;;;;;5083569;28;20147;-62
2021/06/05 10:15:06;;;;;;;13.77;12.07;;;26.30;51.90;;;;;;5093495;28;20024;-62
2021/06/05 10:17:52;;;;;;;12.50;11.20;;;26.30;51.80;;;;;;5094358;28;20047;-61
2021/06/05 10:20:26;;;;;;;11.75;10.52;;;26.30;51.70;;;;;;5094703;28;20051;-62
2021/06/05 10:22:56;;;;;;;9.90;8.88;;;26.30;51.60;;;;;;5095681;28;20085;-63
2021/06/05 10:25:33;;;;;;;11.15;9.18;;;26.30;51.50;;;;;;5094249;28;20086;-61
2021/06/05 10:28:06;;;;;;;10.02;9.05;;;26.30;51.40;;;;;;5095358;28;20031;-62
2021/06/05 10:30:46;;;;;;;10.88;9.10;;;26.30;51.40;;;;;;5094315;28;20378;-62
2021/06/05 10:33:36;;;;;;;9.82;8.07;;;26.30;51.40;;;;;;5093141;28;20396;-64
2021/06/05 10:36:08;;;;;;;8.52;7.57;;;26.30;51.50;;;;;;5093648;28;20036;-62
2021/06/05 10:38:44;;;;;;;8.90;7.40;;;26.30;51.50;;;;;;5094449;28;20796;-63
2021/06/05 10:41:42;;;;;;;6.95;6.18;;;26.30;51.40;;;;;;5095321;28;20032;-63
2021/06/05 10:44:09;;;;;;;6.90;5.95;;;26.30;51.30;;;;;;5092233;28;20079;-63
2021/06/05 10:46:57;;;;;;;8.00;7.15;;;26.30;51.30;;;;;;5094836;28;20166;-63
2021/06/05 10:49:41;;;;;;;7.45;6.57;;;26.40;51.30;;;;;;5091988;28;20032;-64
2021/06/05 10:52:30;;;;;;;7.00;6.30;;;26.40;51.80;;;;;;5094922;28;20066;-62
2021/06/05 10:55:12;;;;;;;6.63;5.97;;;26.50;51.20;;;;;;5094835;28;20116;-64
2021/06/05 10:57:48;;;;;;;6.88;6.07;;;26.50;51.10;;;;;;5094251;28;20031;-60
2021/06/05 11:00:41;;;;;;;7.15;6.28;;;26.50;51.00;;;;;;5091926;28;20032;-63
2021/06/05 11:03:10;;;;;;;7.10;6.22;;;26.50;50.90;;;;;;5094382;28;20505;-61
2021/06/05 11:05:36;;;;;;;6.70;5.90;;;26.50;50.90;;;;;;5092758;28;20044;-62
2021/06/05 11:08:08;;;;;;;10.05;6.10;;;26.60;51.00;;;;;;5093487;28;20039;-62
2021/06/05 11:11:00;;;;;;;7.28;6.28;;;26.60;50.90;;;;;;5093934;28;20032;-62
2021/06/05 11:13:32;;;;;;;7.40;6.57;;;26.70;50.90;;;;;;5094871;28;20359;-61
2021/06/05 11:16:13;;;;;;;6.95;6.25;;;26.70;50.90;;;;;;5094728;28;20043;-62
2021/06/05 11:18:55;;;;;;;6.25;5.40;;;26.70;50.80;;;;;;5092095;28;20028;-63
2021/06/05 11:21:24;;;;;;;6.85;5.68;;;26.70;50.80;;;;;;5093949;28;20355;-62
2021/06/05 11:23:57;;;;;;;6.13;5.53;;;26.80;50.70;;;;;;5092949;28;20016;-61
2021/06/05 11:26:38;;;;;;;5.45;4.95;;;26.80;50.70;;;;;;5094448;28;20054;-63
2021/06/05 11:29:19;;;;;;;7.20;5.90;;;26.80;50.60;;;;;;5093602;28;20382;-63
2021/06/05 11:32:06;;;;;;;6.00;5.40;;;26.90;50.60;;;;;;5092868;28;20036;-64
2021/06/05 11:34:32;;;;;;;5.35;4.85;;;26.90;50.50;;;;;;5093428;28;20114;-61
2021/06/05 11:37:01;;;;;;;6.35;5.18;;;26.90;50.50;;;;;;5093095;28;20042;-61
2021/06/05 11:39:30;;;;;;;4.93;4.43;;;26.90;50.50;;;;;;5092850;28;20024;-62
2021/06/05 11:42:02;;;;;;;5.88;5.03;;;27.00;50.50;;;;;;5094108;28;20328;-62
2021/06/05 11:44:32;;;;;;;8.00;6.13;;;27.00;50.40;;;;;;5093740;28;20055;-62
2021/06/05 11:47:21;;;;;;;9.45;7.55;;;27.00;50.40;;;;;;5090802;28;20493;-59
2021/06/05 11:50:12;;;;;;;10.18;9.10;;;27.00;50.30;;;;;;5085090;28;20040;-62
2021/06/05 11:53:09;;;;;;;10.90;9.75;;;27.00;50.30;;;;;;5092398;28;20038;-64
2021/06/05 11:55:45;;;;;;;12.07;10.57;;;27.00;50.30;;;;;;5089108;28;20076;-62
2021/06/05 11:58:32;;;;;;;13.80;11.75;;;27.00;50.30;;;;;;5081236;28;20040;-60
2021/06/05 12:01:12;;;;;;;13.32;11.93;;;27.00;50.20;;;;;;5090827;28;20028;-63
2021/06/05 12:03:49;;;;;;;15.15;13.18;;;27.00;50.20;;;;;;5079523;28;20028;-64
2021/06/05 12:06:29;;;;;;;15.25;13.65;;;27.00;50.20;;;;;;5093309;28;20114;-62
2021/06/05 12:09:11;;;;;;;14.60;13.10;;;27.10;50.10;;;;;;5073879;28;20040;-63
2021/06/05 12:11:55;;;;;;;18.90;14.75;;;27.10;50.10;;;;;;5089453;28;20051;-61
2021/06/05 12:14:59;;;;;;;15.60;13.98;;;27.10;50.00;;;;;;5081297;28;20379;-62
2021/06/05 12:17:34;;;;;;;14.18;12.68;;;27.10;50.10;;;;;;5087254;28;20367;-64
2021/06/05 12:20:15;;;;;;;15.13;13.52;;;27.10;50.10;;;;;;5091731;28;20043;-62
2021/06/05 12:22:45;;;;;;;14.98;13.05;;;27.10;50.00;;;;;;5089519;28;20116;-61
2021/06/05 12:25:27;;;;;;;14.65;13.15;;;27.10;50.00;;;;;;5092597;28;20064;-63
2021/06/05 12:28:12;;;;;;;15.23;13.68;;;27.10;50.00;;;;;;5093277;28;20045;-62
2021/06/05 12:30:43;;;;;;;15.27;13.70;;;27.10;50.00;;;;;;5091920;28;20362;-63
2021/06/05 12:33:12;;;;;;;14.90;13.35;;;27.10;50.10;;;;;;5086520;28;20032;-61
2021/06/05 12:35:45;;;;;;;16.38;14.13;;;27.10;50.00;;;;;;5092219;28;20501;-61
2021/06/05 12:38:26;;;;;;;15.45;13.85;;;27.20;50.00;;;;;;5090977;28;20474;-62
2021/06/05 12:41:06;;;;;;;15.05;13.40;;;27.10;49.80;;;;;;5091040;28;20097;-63
2021/06/05 12:43:35;;;;;;;13.85;12.38;;;27.20;49.90;;;;;;5086425;28;20027;-61
2021/06/05 12:46:06;;;;;;;14.40;12.88;;;27.10;49.80;;;;;;5091523;28;20456;-62
2021/06/05 12:48:34;;;;;;;14.85;13.05;;;27.10;49.80;;;;;;5086275;28;20036;-60
2021/06/05 12:51:03;;;;;;;15.13;13.35;;;27.10;49.80;;;;;;5088625;28;20113;-62
2021/06/05 12:53:31;;;;;;;14.52;13.02;;;27.10;49.80;;;;;;5088494;28;20036;-64
2021/06/05 12:56:01;;;;;;;15.80;14.02;;;27.10;49.80;;;;;;5100378;28;20039;-62
2021/06/05 12:58:35;;;;;;;14.88;13.38;;;27.10;49.70;;;;;;5091795;28;20028;-62
2021/06/05 13:01:02;;;;;;;13.75;12.35;;;27.20;49.70;;;;;;5092468;28;20028;-61
2021/06/05 13:03:43;;;;;;;15.25;13.70;;;27.10;49.70;;;;;;5091561;28;20114;-61
2021/06/05 13:06:17;;;;;;;15.45;13.73;;;27.20;49.70;;;;;;5087550;28;20048;-62